Terminal Aerodrome Forecast
Issued by NWS

Home | Current Version | Previous Version | Text Only | Print | Product List | Glossary On
Versions: 1 2 3 4 5 6 7 8 9 10 11 12 13 14 15 16 17 18 19 20 21 22
000
FTUS43 KICT 181100
TAFCNU
TAF
KCNU 181132Z 1812/1912 08008KT P6SM VCTS SCT010 BKN035CB
      TEMPO 1812/1816 5SM -TSRA SCT010 BKN018CB
     FM181600 10008KT P6SM SCT020 BKN035
     FM190600 12006KT P6SM BKN020
     FM190900 15007KT 5SM BR BKN015=

USA.gov is the U.S. government's official web portal to all federal, state and local government web resources and services.